Capt. T Le — WDC9568 — position and weather

sailwx.info

Track history (hours):
 
Tides and Currents Weather Stations Pressure Air Temp Water Temp Dewpoint Dewpoint Depression Visibility Wind Speed Wind Dir Waves Ship Positions

Capt. T Le

Owner: SO CAL SHIP SERVICES, INC, TERMINAL ISLAND, CA. More information available from US FCC via Universal Licensing System and Coast Guard Vessel Documentation Center.

Last reported at 2017-Nov-20 00:30 UTC. Time now 2017-Nov-21 13:32 UTC.
Position N 34°07' W 119°17'.

Length 38 m; draft 2 m.

Type: Ship (hazmat cat B). MMSI: 367104030.

Date/timePositionNaut miles runAvg speedWind from/ knotsBaromVisibWave heightAir tempDewpointWater temp
2017-Nov-20 00:30N 34°07' W 119°17'815.7
2017-Nov-20 00:00N 34°11' W 119°25'714.9
2017-Nov-19 23:30N 34°07' W 119°17'5 9.1
2017-Nov-19 23:00N 34°09' W 119°12'0 0.0
2017-Nov-19 22:30N 34°09' W 119°12'0 0.0
2017-Nov-19 21:58N 34°09' W 119°12'0 0.0
2017-Nov-19 21:30N 34°09' W 119°12'0 0.0
2017-Nov-19 20:59N 34°09' W 119°12'0 0.0
2017-Nov-19 20:29N 34°09' W 119°12'0 0.0
2017-Nov-19 19:59N 34°09' W 119°12'0 0.0
2017-Nov-19 19:29N 34°09' W 119°12'0 0.0
2017-Nov-19 19:00N 34°09' W 119°12'0 0.0
2017-Nov-19 18:29N 34°09' W 119°12'0 0.0
2017-Nov-19 17:59N 34°09' W 119°12'0 0.0
2017-Nov-19 17:30N 34°09' W 119°12'2 4.0
2017-Nov-19 16:59N 34°07' W 119°14'2 4.7
2017-Nov-19 16:28N 34°07' W 119°17'5 9.8
2017-Nov-19 16:00N 34°11' W 119°18'611.8
2017-Nov-19 15:30N 34°11' W 119°25'917.4
2017-Nov-19 15:00N 34°09' W 119°15'2 4.6
2017-Nov-19 14:29N 34°09' W 119°12'0 0.0
2017-Nov-19 13:58N 34°09' W 119°12'0 0.0
2017-Nov-19 13:30N 34°09' W 119°12'0 0.0
2017-Nov-19 13:00N 34°09' W 119°12'0 0.0
2017-Nov-19 12:30N 34°09' W 119°12'0 0.0
2017-Nov-19 11:59N 34°09' W 119°12'0 0.0
2017-Nov-19 11:30N 34°09' W 119°12'0 0.0
2017-Nov-19 10:59N 34°09' W 119°12'0 0.0
2017-Nov-19 10:30N 34°09' W 119°12'0 0.0
2017-Nov-19 09:59N 34°09' W 119°12'0 0.0
2017-Nov-19 09:30N 34°09' W 119°12'0 0.0
2017-Nov-19 08:59N 34°09' W 119°12'0 0.0
2017-Nov-19 08:30N 34°09' W 119°12'0 0.0
2017-Nov-19 08:00N 34°09' W 119°12'0 0.0
2017-Nov-19 07:29N 34°09' W 119°12'0 0.0
2017-Nov-19 07:00N 34°09' W 119°12'0 0.0
2017-Nov-19 06:26N 34°09' W 119°12'0 0.0
2017-Nov-19 06:00N 34°09' W 119°12'0 0.0
2017-Nov-19 05:28N 34°09' W 119°12'0 0.0
2017-Nov-19 04:59N 34°09' W 119°12'0 0.0
2017-Nov-19 04:27N 34°09' W 119°12'0 0.0
2017-Nov-19 03:59N 34°09' W 119°12'0 0.0
2017-Nov-19 03:29N 34°09' W 119°12'0 0.0
2017-Nov-19 03:00N 34°09' W 119°12'0 0.0
2017-Nov-19 02:29N 34°09' W 119°12'0 0.0
2017-Nov-19 01:55N 34°09' W 119°12'0 0.0
2017-Nov-19 01:30N 34°09' W 119°12'0 0.0
2017-Nov-19 00:57N 34°09' W 119°12'0 0.0
2017-Nov-19 00:29N 34°09' W 119°12'0 0.0
2017-Nov-18 23:58N 34°09' W 119°12'0 0.0
2017-Nov-18 23:30N 34°09' W 119°12'0 0.0
2017-Nov-18 23:00N 34°09' W 119°12'611.2
2017-Nov-18 22:30N 34°10' W 119°19'510.7
2017-Nov-18 22:00N 34°11' W 119°25'0 0.0
2017-Nov-18 21:30N 34°11' W 119°25'0 0.0
2017-Nov-18 20:59N 34°11' W 119°25'0 0.0
2017-Nov-18 20:27N 34°11' W 119°25'0 0.0
2017-Nov-18 20:00N 34°11' W 119°25'0 0.3
2017-Nov-18 19:29N 34°11' W 119°25'0 0.1
2017-Nov-18 19:00N 34°11' W 119°25'0 0.0
2017-Nov-18 18:29N 34°11' W 119°25'3 6.9
2017-Nov-18 17:59N 34°10' W 119°21'712.9
2017-Nov-18 17:26N 34°09' W 119°13'0 0.9
2017-Nov-18 17:00N 34°09' W 119°12'0 0.0
2017-Nov-18 16:30N 34°09' W 119°12'0 0.0
2017-Nov-18 15:59N 34°09' W 119°12'0 0.0
2017-Nov-18 15:30N 34°09' W 119°12'0 0.0
2017-Nov-18 15:00N 34°09' W 119°12'0 0.0
2017-Nov-18 14:30N 34°09' W 119°12'0 0.0
2017-Nov-18 14:00N 34°09' W 119°12'0 0.0
2017-Nov-18 13:30N 34°09' W 119°12'0 0.0
2017-Nov-18 13:00N 34°09' W 119°12'0 0.0
2017-Nov-18 12:27N 34°09' W 119°12'0 0.0
2017-Nov-18 12:00N 34°09' W 119°12'0 0.0
2017-Nov-18 11:30N 34°09' W 119°12'0 0.0
2017-Nov-18 10:58N 34°09' W 119°12'0 0.0
2017-Nov-18 10:23N 34°09' W 119°12'0 0.0
2017-Nov-18 10:00N 34°09' W 119°12'0 0.0
2017-Nov-18 09:30N 34°09' W 119°12'0 0.0
2017-Nov-18 09:00N 34°09' W 119°12'0 0.0
2017-Nov-18 08:30N 34°09' W 119°12'0 0.0
2017-Nov-18 08:00N 34°09' W 119°12'0 0.0
2017-Nov-18 07:30N 34°09' W 119°12'0 0.0
2017-Nov-18 07:00N 34°09' W 119°12'610.4
2017-Nov-18 06:28N 34°13' W 119°17'2 3.9
2017-Nov-18 06:00N 34°14' W 119°16'0 0.0
2017-Nov-18 05:31N 34°14' W 119°16'0 0.0
2017-Nov-18 05:01N 34°14' W 119°16'0 0.0
2017-Nov-18 04:30N 34°14' W 119°16'0 0.0
2017-Nov-18 04:00N 34°14' W 119°16'0 0.0
2017-Nov-18 03:30N 34°14' W 119°16'0 0.0
2017-Nov-18 03:00N 34°14' W 119°16'0 0.0
2017-Nov-18 02:30N 34°14' W 119°16'0 0.0
2017-Nov-18 02:00N 34°14' W 119°16'0 0.0
2017-Nov-18 01:30N 34°14' W 119°16'0 0.0
2017-Nov-18 01:00N 34°14' W 119°16'0 0.0
2017-Nov-18 00:30N 34°14' W 119°16'0 0.0
2017-Nov-18 00:00N 34°14' W 119°16'0 0.0
2017-Nov-17 23:31N 34°14' W 119°16'0 0.0
2017-Nov-17 23:01N 34°14' W 119°16'0 0.0
2017-Nov-17 22:31N 34°14' W 119°16'0 0.0
2017-Nov-17 22:00N 34°14' W 119°16'0 0.0
2017-Nov-17 21:30N 34°14' W 119°16'0 0.0
2017-Nov-17 21:00N 34°14' W 119°16'0 0.0
2017-Nov-17 20:30N 34°14' W 119°16'0 0.0
2017-Nov-17 20:00N 34°14' W 119°16'0 0.0
2017-Nov-17 19:30N 34°14' W 119°16'0 0.0
2017-Nov-17 19:00N 34°14' W 119°16'0 0.0
2017-Nov-17 18:30N 34°14' W 119°16'3 5.6
2017-Nov-17 18:00N 34°12' W 119°17'5 9.4
2017-Nov-17 17:30N 34°07' W 119°17'0 0.2
2017-Nov-17 17:00N 34°07' W 119°17'0 0.1
2017-Nov-17 16:30N 34°07' W 119°17'510.3
2017-Nov-17 15:59N 34°10' W 119°22'1 1.1
2017-Nov-17 15:28N 34°10' W 119°22'613.4
2017-Nov-17 14:59N 34°09' W 119°14'2 3.8
2017-Nov-17 14:30N 34°09' W 119°12'0 0.0
2017-Nov-17 13:59N 34°09' W 119°12'0 0.0
2017-Nov-17 13:30N 34°09' W 119°12'0 0.0
2017-Nov-17 13:00N 34°09' W 119°12'0 0.0
2017-Nov-17 12:30N 34°09' W 119°12'0 0.0
2017-Nov-17 11:59N 34°09' W 119°12'0 0.0
2017-Nov-17 11:29N 34°09' W 119°12'0 0.0
2017-Nov-17 10:58N 34°09' W 119°12'0 0.0
2017-Nov-17 10:30N 34°09' W 119°12'0 0.0
2017-Nov-17 09:57N 34°09' W 119°12'0 0.0
2017-Nov-17 09:29N 34°09' W 119°12'0 0.0
2017-Nov-17 08:55N 34°09' W 119°12'0 0.0
2017-Nov-17 08:28N 34°09' W 119°12'0 0.0
2017-Nov-17 07:58N 34°09' W 119°12'0 0.0
2017-Nov-17 07:23N 34°09' W 119°12'0 0.0
2017-Nov-17 06:59N 34°09' W 119°12'0 0.0
2017-Nov-17 06:30N 34°09' W 119°12'0 0.0
2017-Nov-17 05:52N 34°09' W 119°12'0 0.0
2017-Nov-17 05:28N 34°09' W 119°12'0 0.0
2017-Nov-17 04:58N 34°09' W 119°12'0 0.0
2017-Nov-17 04:29N 34°09' W 119°12'0 0.0
2017-Nov-17 04:00N 34°09' W 119°12'3 5.5
2017-Nov-17 03:29N 34°09' W 119°15'613.2
2017-Nov-17 03:00N 34°11' W 119°23'2 4.4
2017-Nov-17 02:30N 34°10' W 119°21'712.8
2017-Nov-17 01:58N 34°09' W 119°12'0 0.5
2017-Nov-17 01:29N 34°09' W 119°12'4 8.4
2017-Nov-17 01:00N 34°07' W 119°17'4 7.8
2017-Nov-17 00:28N 34°09' W 119°12'5 9.7
2017-Nov-16 23:59N 34°07' W 119°18'715.1
2017-Nov-16 23:30N 34°11' W 119°25'713.3
2017-Nov-16 23:00N 34°17' W 119°29'613.0
2017-Nov-16 22:30N 34°23' W 119°30'0 0.0
2017-Nov-16 22:00N 34°23' W 119°30'4 8.0
2017-Nov-16 21:28N 34°19' W 119°29'716.0
2017-Nov-16 21:01N 34°14' W 119°23'815.8
2017-Nov-16 20:30N 34°07' W 119°17'2 4.4
2017-Nov-16 20:01N 34°08' W 119°19'610.9
2017-Nov-16 19:30N 34°11' W 119°25'815.5
2017-Nov-16 19:00N 34°09' W 119°16'3 5.8
2017-Nov-16 18:26N 34°09' W 119°12'0 0.0
2017-Nov-16 17:57N 34°09' W 119°12'0 0.0
2017-Nov-16 17:29N 34°09' W 119°12'0 0.0
2017-Nov-16 17:00N 34°09' W 119°12'0 0.7
2017-Nov-16 16:30N 34°09' W 119°13'815.2
2017-Nov-16 16:00N 34°10' W 119°21'3 5.7
2017-Nov-16 15:30N 34°11' W 119°25'917.2
2017-Nov-16 15:00N 34°09' W 119°15'2 4.6
2017-Nov-16 14:30N 34°09' W 119°12'0 0.0
2017-Nov-16 13:58N 34°09' W 119°12'0 0.0
2017-Nov-16 13:30N 34°09' W 119°12'2 3.3
2017-Nov-16 13:00N 34°08' W 119°14'2 3.3
2017-Nov-16 12:30N 34°09' W 119°12'0 0.0
2017-Nov-16 12:00N 34°09' W 119°12'0 0.0
2017-Nov-16 11:30N 34°09' W 119°12'0 0.0
2017-Nov-16 10:59N 34°09' W 119°12'0 0.0
2017-Nov-16 10:22N 34°09' W 119°12'0 0.0
2017-Nov-16 10:00N 34°09' W 119°12'0 0.0
2017-Nov-16 09:29N 34°09' W 119°12'0 0.0
2017-Nov-16 09:00N 34°09' W 119°12'0 0.0
2017-Nov-16 08:27N 34°09' W 119°12'0 0.0
2017-Nov-16 08:00N 34°09' W 119°12'0 0.0
2017-Nov-16 07:29N 34°09' W 119°12'0 0.0
2017-Nov-16 06:59N 34°09' W 119°12'0 0.0
2017-Nov-16 06:26N 34°09' W 119°12'0 0.0
2017-Nov-16 05:59N 34°09' W 119°12'0 0.0
2017-Nov-16 05:30N 34°09' W 119°12'0 0.0
2017-Nov-16 05:00N 34°09' W 119°12'0 0.0
2017-Nov-16 04:30N 34°09' W 119°12'0 0.0
2017-Nov-16 03:58N 34°09' W 119°12'3 6.5
2017-Nov-16 03:29N 34°09' W 119°16'816.0
2017-Nov-16 03:00N 34°11' W 119°25'611.4
2017-Nov-16 02:30N 34°10' W 119°18'5 9.5
2017-Nov-16 01:56N 34°09' W 119°12'0 0.0
2017-Nov-16 01:30N 34°09' W 119°12'3 5.5
2017-Nov-16 00:59N 34°08' W 119°15'3 5.6
2017-Nov-16 00:30N 34°09' W 119°12'4 7.7
2017-Nov-16 00:00N 34°07' W 119°16'612.8
2017-Nov-15 23:30N 34°10' W 119°23'2 3.6
2017-Nov-15 23:01N 34°11' W 119°25'0 0.0
2017-Nov-15 22:31N 34°11' W 119°25'3 5.2
2017-Nov-15 22:00N 34°10' W 119°22'815.9
2017-Nov-15 21:31N 34°09' W 119°13'4 8.2
2017-Nov-15 20:58N 34°08' W 119°18'713.9
2017-Nov-15 20:28N 34°11' W 119°25'0 0.6
2017-Nov-15 19:58N 34°11' W 119°25'714.9
2017-Nov-15 19:29N 34°09' W 119°16'3 6.9
2017-Nov-15 19:00N 34°09' W 119°12'0 0.0
2017-Nov-15 18:28N 34°09' W 119°12'0 0.0
2017-Nov-15 18:00N 34°09' W 119°12'0 0.0
2017-Nov-15 17:29N 34°09' W 119°12'0 0.0
2017-Nov-15 17:00N 34°09' W 119°12'0 0.1
2017-Nov-15 16:29N 34°09' W 119°12'714.1
2017-Nov-15 16:00N 34°10' W 119°20'2 4.3
2017-Nov-15 15:30N 34°10' W 119°23'815.1
2017-Nov-15 15:00N 34°08' W 119°14'2 3.5
2017-Nov-15 14:31N 34°09' W 119°12'0 0.0
2017-Nov-15 13:54N 34°09' W 119°12'0 0.0
2017-Nov-15 13:30N 34°09' W 119°12'0 0.0
2017-Nov-15 13:00N 34°09' W 119°12'0 0.0
2017-Nov-15 12:30N 34°09' W 119°12'0 0.0
2017-Nov-15 12:00N 34°09' W 119°12'0 0.0
2017-Nov-15 11:28N 34°09' W 119°12'0 0.0
2017-Nov-15 11:00N 34°09' W 119°12'0 0.0
2017-Nov-15 10:30N 34°09' W 119°12'0 0.0
2017-Nov-15 09:57N 34°09' W 119°12'0 0.0
2017-Nov-15 09:31N 34°09' W 119°12'0 0.0
2017-Nov-15 08:58N 34°09' W 119°12'0 0.0
2017-Nov-15 08:27N 34°09' W 119°12'0 0.0
2017-Nov-15 07:57N 34°09' W 119°12'0 0.0
2017-Nov-15 07:30N 34°09' W 119°12'0 0.0
2017-Nov-15 06:58N 34°09' W 119°12'0 0.0
2017-Nov-15 06:30N 34°09' W 119°12'0 0.0
2017-Nov-15 05:59N 34°09' W 119°12'0 0.0
2017-Nov-15 05:29N 34°09' W 119°12'0 0.0
2017-Nov-15 04:52N 34°09' W 119°12'0 0.0
2017-Nov-15 04:28N 34°09' W 119°12'0 0.0
2017-Nov-15 03:57N 34°09' W 119°12'0 0.0
2017-Nov-15 03:29N 34°09' W 119°12'0 0.0
2017-Nov-15 03:00N 34°09' W 119°12'0 0.0
2017-Nov-15 02:24N 34°09' W 119°12'0 0.0
2017-Nov-15 01:55N 34°09' W 119°12'0 0.0
2017-Nov-15 01:30N 34°09' W 119°12'0 0.0
2017-Nov-15 00:59N 34°09' W 119°12'0 0.0
2017-Nov-15 00:17N 34°09' W 119°12'413.6
2017-Nov-14 23:59N 34°07' W 119°17'816.8
2017-Nov-14 23:30N 34°11' W 119°25'4 8.4
2017-Nov-14 23:00N 34°10' W 119°20'711.2
2017-Nov-14 22:24N 34°09' W 119°12'0 0.0
2017-Nov-14 21:56N 34°09' W 119°12'0 0.0
2017-Nov-14 21:30N 34°09' W 119°12'1 2.2
2017-Nov-14 20:58N 34°08' W 119°13'817.7
2017-Nov-14 20:30N 34°11' W 119°23'611.0
2017-Nov-14 20:00N 34°15' W 119°28'916.5
2017-Nov-14 19:29N 34°23' W 119°31'3 5.2
2017-Nov-14 18:59N 34°20' W 119°30'816.2
2017-Nov-14 18:30N 34°13' W 119°26'612.3
2017-Nov-14 18:00N 34°09' W 119°21'4 8.0
2017-Nov-14 17:30N 34°07' W 119°17'4 7.9
2017-Nov-14 16:58N 34°09' W 119°12'3 7.2
2017-Nov-14 16:30N 34°09' W 119°16'815.4
2017-Nov-14 16:00N 34°11' W 119°25'815.4
2017-Nov-14 15:30N 34°07' W 119°17'4 8.5
2017-Nov-14 14:59N 34°09' W 119°12'0 0.0
2017-Nov-14 14:30N 34°09' W 119°12'0 0.0
2017-Nov-14 14:01N 34°09' W 119°12'0 0.0
2017-Nov-14 13:30N 34°09' W 119°12'0 0.0
2017-Nov-14 13:00N 34°09' W 119°12'0 0.0
2017-Nov-14 12:30N 34°09' W 119°12'0 0.0
2017-Nov-14 12:00N 34°09' W 119°12'0 0.0
2017-Nov-14 11:30N 34°09' W 119°12'0 0.0
2017-Nov-14 10:57N 34°09' W 119°12'0 0.0
2017-Nov-14 10:30N 34°09' W 119°12'0 0.0
2017-Nov-14 10:00N 34°09' W 119°12'0 0.0
2017-Nov-14 09:27N 34°09' W 119°12'0 0.0
2017-Nov-14 09:00N 34°09' W 119°12'0 0.0
2017-Nov-14 08:30N 34°09' W 119°12'0 0.0
2017-Nov-14 08:00N 34°09' W 119°12'0 0.0
2017-Nov-14 07:27N 34°09' W 119°12'0 0.0
2017-Nov-14 07:00N 34°09' W 119°12'0 0.0
2017-Nov-14 06:30N 34°09' W 119°12'0 0.0
2017-Nov-14 06:01N 34°09' W 119°12'0 0.0
2017-Nov-14 05:31N 34°09' W 119°12'0 0.0
2017-Nov-14 05:00N 34°09' W 119°12'0 0.0
2017-Nov-14 04:30N 34°09' W 119°12'0 0.0
2017-Nov-14 03:59N 34°09' W 119°12'0 0.0
2017-Nov-14 03:30N 34°09' W 119°12'0 0.0
2017-Nov-14 03:00N 34°09' W 119°12'0 0.0
2017-Nov-14 02:27N 34°09' W 119°12'0 0.0
2017-Nov-14 01:54N 34°09' W 119°12'0 0.0
2017-Nov-14 01:30N 34°09' W 119°12'0 0.0
2017-Nov-14 01:00N 34°09' W 119°12'1 1.8
2017-Nov-14 00:29N 34°08' W 119°13'2 4.5
2017-Nov-14 00:00N 34°08' W 119°16'815.7
2017-Nov-13 23:30N 34°10' W 119°24'4 7.5
2017-Nov-13 22:57N 34°10' W 119°19'511.4
2017-Nov-13 22:29N 34°09' W 119°13'4 7.4
2017-Nov-13 22:00N 34°07' W 119°17'3 0.1
2017-Nov-13 01:56N 34°08' W 119°14'2 3.6
2017-Nov-13 01:30N 34°09' W 119°12'0 0.3
2017-Nov-13 01:00N 34°09' W 119°12'815.5
2017-Nov-13 00:30N 34°10' W 119°22'3 6.0
2017-Nov-13 00:00N 34°11' W 119°25'0 0.0
2017-Nov-12 23:30N 34°11' W 119°25'611.7
2017-Nov-12 23:00N 34°10' W 119°18'510.3
2017-Nov-12 22:30N 34°09' W 119°12'0 0.0
2017-Nov-12 21:58N 34°09' W 119°12'0 0.0
2017-Nov-12 21:28N 34°09' W 119°12'0 0.0
2017-Nov-12 20:54N 34°09' W 119°12'0 0.0
2017-Nov-12 20:21N 34°09' W 119°12'0 0.0
2017-Nov-12 19:59N 34°09' W 119°12'0 0.0
2017-Nov-12 01:42N 34°09' W 119°12'0 0.0
2017-Nov-12 01:29N 34°09' W 119°12'0 0.0
2017-Nov-12 00:56N 34°09' W 119°12'0 0.0
2017-Nov-12 00:26N 34°09' W 119°12'2 3.8
2017-Nov-11 23:59N 34°09' W 119°14'817.1
2017-Nov-11 23:30N 34°11' W 119°24'1 2.0
2017-Nov-11 23:00N 34°11' W 119°25'0 0.0
2017-Nov-11 22:30N 34°11' W 119°25'0 0.0
2017-Nov-11 22:00N 34°11' W 119°25'0 0.4
2017-Nov-11 21:30N 34°11' W 119°25'0 0.0
2017-Nov-11 20:58N 34°11' W 119°25'0 0.1
2017-Nov-11 20:29N 34°11' W 119°25'0 0.3
2017-Nov-11 20:00N 34°11' W 119°25'714.8
2017-Nov-11 19:30N 34°18' W 119°29'4 7.9
2017-Nov-11 19:00N 34°22' W 119°30'816.4
2017-Nov-11 18:30N 34°15' W 119°24'816.7
2017-Nov-11 18:00N 34°10' W 119°16'4 6.7
2017-Nov-11 17:29N 34°09' W 119°12'0 0.0
2017-Nov-11 17:00N 34°09' W 119°12'2 3.3
2017-Nov-11 16:30N 34°09' W 119°14'510.4
2017-Nov-11 16:00N 34°09' W 119°20'4 7.5
2017-Nov-11 15:31N 34°11' W 119°25'713.9
2017-Nov-11 15:00N 34°09' W 119°16'4 7.1
2017-Nov-11 14:30N 34°09' W 119°12'0 0.0
2017-Nov-11 14:00N 34°09' W 119°12'0 0.0
2017-Nov-11 13:30N 34°09' W 119°12'0 0.0
2017-Nov-11 12:58N 34°09' W 119°12'0 0.0
2017-Nov-11 12:30N 34°09' W 119°12'0 0.0
2017-Nov-11 12:00N 34°09' W 119°12'0 0.0
2017-Nov-11 11:29N 34°09' W 119°12'0 0.0
2017-Nov-11 10:58N 34°09' W 119°12'0 0.0
2017-Nov-11 10:29N 34°09' W 119°12'0 0.0
2017-Nov-11 10:00N 34°09' W 119°12'0 0.0
2017-Nov-11 09:28N 34°09' W 119°12'0 0.0
2017-Nov-11 09:00N 34°09' W 119°12'0 0.0
2017-Nov-11 08:29N 34°09' W 119°12'0 0.0
2017-Nov-11 08:00N 34°09' W 119°12'0 0.0
2017-Nov-11 07:30N 34°09' W 119°12'0 0.0
2017-Nov-11 07:00N 34°09' W 119°12'0 0.0
2017-Nov-11 06:30N 34°09' W 119°12'0 0.0
2017-Nov-11 06:00N 34°09' W 119°12'0 0.0
2017-Nov-11 05:26N 34°09' W 119°12'0 0.0
2017-Nov-11 05:00N 34°09' W 119°12'0 0.0
2017-Nov-11 04:29N 34°09' W 119°12'0 0.0
2017-Nov-11 04:00N 34°09' W 119°12'0 0.0
2017-Nov-11 03:29N 34°09' W 119°12'0 0.0
2017-Nov-11 02:58N 34°09' W 119°12'0 0.0
2017-Nov-11 02:27N 34°09' W 119°12'0 0.0
2017-Nov-11 01:52N 34°09' W 119°12'0 0.0
2017-Nov-11 01:30N 34°09' W 119°12'0 0.0
2017-Nov-11 01:00N 34°09' W 119°12'0 0.0
2017-Nov-11 00:28N 34°09' W 119°12'4 8.6
2017-Nov-11 00:00N 34°07' W 119°16'815.7
2017-Nov-10 23:29N 34°11' W 119°25'714.3
2017-Nov-10 23:00N 34°09' W 119°17'3 5.0
2017-Nov-10 22:30N 34°08' W 119°14'815.1
2017-Nov-10 22:00N 34°10' W 119°23'2 3.6
2017-Nov-10 21:30N 34°11' W 119°25'0 0.0
2017-Nov-10 21:00N 34°11' W 119°25'510.2
2017-Nov-10 20:30N 34°15' W 119°28'713.7
2017-Nov-10 19:59N 34°22' W 119°31'1 2.1
2017-Nov-10 19:30N 34°23' W 119°30'1 1.4
2017-Nov-10 19:00N 34°22' W 119°30'0 0.0
2017-Nov-10 18:28N 34°23' W 119°30'1 1.5
2017-Nov-10 18:00N 34°23' W 119°30'4 7.1
2017-Nov-10 17:30N 34°20' W 119°32'815.5
2017-Nov-10 17:00N 34°13' W 119°27'3 5.2
2017-Nov-10 16:29N 34°11' W 119°25'0 0.5
2017-Nov-10 16:00N 34°11' W 119°25'0 0.4
2017-Nov-10 15:31N 34°11' W 119°25'815.6
2017-Nov-10 15:00N 34°09' W 119°16'3 5.5
2017-Nov-10 14:26N 34°09' W 119°12'0 0.0
2017-Nov-10 13:59N 34°09' W 119°12'0 0.0
2017-Nov-10 13:29N 34°09' W 119°12'0 0.0
2017-Nov-10 13:00N 34°09' W 119°12'0 0.0
2017-Nov-10 12:30N 34°09' W 119°12'0 0.0
2017-Nov-10 12:00N 34°09' W 119°12'0 0.0
2017-Nov-10 11:30N 34°09' W 119°12'0 0.0
2017-Nov-10 10:59N 34°09' W 119°12'0 0.0
2017-Nov-10 10:22N 34°09' W 119°12'0 0.0
2017-Nov-10 10:00N 34°09' W 119°12'0 0.0
2017-Nov-10 09:30N 34°09' W 119°12'0 0.0
2017-Nov-10 09:00N 34°09' W 119°12'0 0.0
2017-Nov-10 08:25N 34°09' W 119°12'0 0.0
2017-Nov-10 08:00N 34°09' W 119°12'0 0.0
2017-Nov-10 07:30N 34°09' W 119°12'0 0.0
2017-Nov-10 07:00N 34°09' W 119°12'0 0.0
2017-Nov-10 06:30N 34°09' W 119°12'0 0.0
2017-Nov-10 06:00N 34°09' W 119°12'0 0.0
2017-Nov-10 05:30N 34°09' W 119°12'0 0.0
2017-Nov-10 04:58N 34°09' W 119°12'0 0.0
2017-Nov-10 04:30N 34°09' W 119°12'0 0.0
2017-Nov-10 03:57N 34°09' W 119°12'0 0.0
2017-Nov-10 03:30N 34°09' W 119°12'815.8
2017-Nov-10 03:00N 34°10' W 119°21'2 4.2
2017-Nov-10 02:25N 34°10' W 119°19'512.5
2017-Nov-10 01:59N 34°09' W 119°12'0 0.0
2017-Nov-10 01:30N 34°09' W 119°12'0 0.7
2017-Nov-10 01:00N 34°09' W 119°13'0 0.3
2017-Nov-10 00:30N 34°09' W 119°13'  
Track history (hours):
 
Tides and Currents Weather Stations Pressure Air Temp Water Temp Dewpoint Dewpoint Depression Visibility Wind Speed Wind Dir Waves Ship Positions

Capt. T Le

Owner: SO CAL SHIP SERVICES, INC, TERMINAL ISLAND, CA. More information available from US FCC via Universal Licensing System and Coast Guard Vessel Documentation Center.

Last reported at 2017-Nov-20 00:30 UTC. Time now 2017-Nov-21 13:32 UTC.
Position N 34°07' W 119°17'.

Length 38 m; draft 2 m.

Type: Ship (hazmat cat B). MMSI: 367104030.

Date/timePositionNaut miles runAvg speedWind from/ knotsBaromVisibWave heightAir tempDewpointWater temp
2017-Nov-20 00:30N 34°07' W 119°17'815.7
2017-Nov-20 00:00N 34°11' W 119°25'714.9
2017-Nov-19 23:30N 34°07' W 119°17'5 9.1
2017-Nov-19 23:00N 34°09' W 119°12'0 0.0
2017-Nov-19 22:30N 34°09' W 119°12'0 0.0
2017-Nov-19 21:58N 34°09' W 119°12'0 0.0
2017-Nov-19 21:30N 34°09' W 119°12'0 0.0
2017-Nov-19 20:59N 34°09' W 119°12'0 0.0
2017-Nov-19 20:29N 34°09' W 119°12'0 0.0
2017-Nov-19 19:59N 34°09' W 119°12'0 0.0
2017-Nov-19 19:29N 34°09' W 119°12'0 0.0
2017-Nov-19 19:00N 34°09' W 119°12'0 0.0
2017-Nov-19 18:29N 34°09' W 119°12'0 0.0
2017-Nov-19 17:59N 34°09' W 119°12'0 0.0
2017-Nov-19 17:30N 34°09' W 119°12'2 4.0
2017-Nov-19 16:59N 34°07' W 119°14'2 4.7
2017-Nov-19 16:28N 34°07' W 119°17'5 9.8
2017-Nov-19 16:00N 34°11' W 119°18'611.8
2017-Nov-19 15:30N 34°11' W 119°25'917.4
2017-Nov-19 15:00N 34°09' W 119°15'2 4.6
2017-Nov-19 14:29N 34°09' W 119°12'0 0.0
2017-Nov-19 13:58N 34°09' W 119°12'0 0.0
2017-Nov-19 13:30N 34°09' W 119°12'0 0.0
2017-Nov-19 13:00N 34°09' W 119°12'0 0.0
2017-Nov-19 12:30N 34°09' W 119°12'0 0.0
2017-Nov-19 11:59N 34°09' W 119°12'0 0.0
2017-Nov-19 11:30N 34°09' W 119°12'0 0.0
2017-Nov-19 10:59N 34°09' W 119°12'0 0.0
2017-Nov-19 10:30N 34°09' W 119°12'0 0.0
2017-Nov-19 09:59N 34°09' W 119°12'0 0.0
2017-Nov-19 09:30N 34°09' W 119°12'0 0.0
2017-Nov-19 08:59N 34°09' W 119°12'0 0.0
2017-Nov-19 08:30N 34°09' W 119°12'0 0.0
2017-Nov-19 08:00N 34°09' W 119°12'0 0.0
2017-Nov-19 07:29N 34°09' W 119°12'0 0.0
2017-Nov-19 07:00N 34°09' W 119°12'0 0.0
2017-Nov-19 06:26N 34°09' W 119°12'0 0.0
2017-Nov-19 06:00N 34°09' W 119°12'0 0.0
2017-Nov-19 05:28N 34°09' W 119°12'0 0.0
2017-Nov-19 04:59N 34°09' W 119°12'0 0.0
2017-Nov-19 04:27N 34°09' W 119°12'0 0.0
2017-Nov-19 03:59N 34°09' W 119°12'0 0.0
2017-Nov-19 03:29N 34°09' W 119°12'0 0.0
2017-Nov-19 03:00N 34°09' W 119°12'0 0.0
2017-Nov-19 02:29N 34°09' W 119°12'0 0.0
2017-Nov-19 01:55N 34°09' W 119°12'0 0.0
2017-Nov-19 01:30N 34°09' W 119°12'0 0.0
2017-Nov-19 00:57N 34°09' W 119°12'0 0.0
2017-Nov-19 00:29N 34°09' W 119°12'0 0.0
2017-Nov-18 23:58N 34°09' W 119°12'0 0.0
2017-Nov-18 23:30N 34°09' W 119°12'0 0.0
2017-Nov-18 23:00N 34°09' W 119°12'611.2
2017-Nov-18 22:30N 34°10' W 119°19'510.7
2017-Nov-18 22:00N 34°11' W 119°25'0 0.0
2017-Nov-18 21:30N 34°11' W 119°25'0 0.0
2017-Nov-18 20:59N 34°11' W 119°25'0 0.0
2017-Nov-18 20:27N 34°11' W 119°25'0 0.0
2017-Nov-18 20:00N 34°11' W 119°25'0 0.3
2017-Nov-18 19:29N 34°11' W 119°25'0 0.1
2017-Nov-18 19:00N 34°11' W 119°25'0 0.0
2017-Nov-18 18:29N 34°11' W 119°25'3 6.9
2017-Nov-18 17:59N 34°10' W 119°21'712.9
2017-Nov-18 17:26N 34°09' W 119°13'0 0.9
2017-Nov-18 17:00N 34°09' W 119°12'0 0.0
2017-Nov-18 16:30N 34°09' W 119°12'0 0.0
2017-Nov-18 15:59N 34°09' W 119°12'0 0.0
2017-Nov-18 15:30N 34°09' W 119°12'0 0.0
2017-Nov-18 15:00N 34°09' W 119°12'0 0.0
2017-Nov-18 14:30N 34°09' W 119°12'0 0.0
2017-Nov-18 14:00N 34°09' W 119°12'0 0.0
2017-Nov-18 13:30N 34°09' W 119°12'0 0.0
2017-Nov-18 13:00N 34°09' W 119°12'0 0.0
2017-Nov-18 12:27N 34°09' W 119°12'0 0.0
2017-Nov-18 12:00N 34°09' W 119°12'0 0.0
2017-Nov-18 11:30N 34°09' W 119°12'0 0.0
2017-Nov-18 10:58N 34°09' W 119°12'0 0.0
2017-Nov-18 10:23N 34°09' W 119°12'0 0.0
2017-Nov-18 10:00N 34°09' W 119°12'0 0.0
2017-Nov-18 09:30N 34°09' W 119°12'0 0.0
2017-Nov-18 09:00N 34°09' W 119°12'0 0.0
2017-Nov-18 08:30N 34°09' W 119°12'0 0.0
2017-Nov-18 08:00N 34°09' W 119°12'0 0.0
2017-Nov-18 07:30N 34°09' W 119°12'0 0.0
2017-Nov-18 07:00N 34°09' W 119°12'610.4
2017-Nov-18 06:28N 34°13' W 119°17'2 3.9
2017-Nov-18 06:00N 34°14' W 119°16'0 0.0
2017-Nov-18 05:31N 34°14' W 119°16'0 0.0
2017-Nov-18 05:01N 34°14' W 119°16'0 0.0
2017-Nov-18 04:30N 34°14' W 119°16'0 0.0
2017-Nov-18 04:00N 34°14' W 119°16'0 0.0
2017-Nov-18 03:30N 34°14' W 119°16'0 0.0
2017-Nov-18 03:00N 34°14' W 119°16'0 0.0
2017-Nov-18 02:30N 34°14' W 119°16'0 0.0
2017-Nov-18 02:00N 34°14' W 119°16'0 0.0
2017-Nov-18 01:30N 34°14' W 119°16'0 0.0
2017-Nov-18 01:00N 34°14' W 119°16'0 0.0
2017-Nov-18 00:30N 34°14' W 119°16'0 0.0
2017-Nov-18 00:00N 34°14' W 119°16'0 0.0
2017-Nov-17 23:31N 34°14' W 119°16'0 0.0
2017-Nov-17 23:01N 34°14' W 119°16'0 0.0
2017-Nov-17 22:31N 34°14' W 119°16'0 0.0
2017-Nov-17 22:00N 34°14' W 119°16'0 0.0
2017-Nov-17 21:30N 34°14' W 119°16'0 0.0
2017-Nov-17 21:00N 34°14' W 119°16'0 0.0
2017-Nov-17 20:30N 34°14' W 119°16'0 0.0
2017-Nov-17 20:00N 34°14' W 119°16'0 0.0
2017-Nov-17 19:30N 34°14' W 119°16'0 0.0
2017-Nov-17 19:00N 34°14' W 119°16'0 0.0
2017-Nov-17 18:30N 34°14' W 119°16'3 5.6
2017-Nov-17 18:00N 34°12' W 119°17'5 9.4
2017-Nov-17 17:30N 34°07' W 119°17'0 0.2
2017-Nov-17 17:00N 34°07' W 119°17'0 0.1
2017-Nov-17 16:30N 34°07' W 119°17'510.3
2017-Nov-17 15:59N 34°10' W 119°22'1 1.1
2017-Nov-17 15:28N 34°10' W 119°22'613.4
2017-Nov-17 14:59N 34°09' W 119°14'2 3.8
2017-Nov-17 14:30N 34°09' W 119°12'0 0.0
2017-Nov-17 13:59N 34°09' W 119°12'0 0.0
2017-Nov-17 13:30N 34°09' W 119°12'0 0.0
2017-Nov-17 13:00N 34°09' W 119°12'0 0.0
2017-Nov-17 12:30N 34°09' W 119°12'0 0.0
2017-Nov-17 11:59N 34°09' W 119°12'0 0.0
2017-Nov-17 11:29N 34°09' W 119°12'0 0.0
2017-Nov-17 10:58N 34°09' W 119°12'0 0.0
2017-Nov-17 10:30N 34°09' W 119°12'0 0.0
2017-Nov-17 09:57N 34°09' W 119°12'0 0.0
2017-Nov-17 09:29N 34°09' W 119°12'0 0.0
2017-Nov-17 08:55N 34°09' W 119°12'0 0.0
2017-Nov-17 08:28N 34°09' W 119°12'0 0.0
2017-Nov-17 07:58N 34°09' W 119°12'0 0.0
2017-Nov-17 07:23N 34°09' W 119°12'0 0.0
2017-Nov-17 06:59N 34°09' W 119°12'0 0.0
2017-Nov-17 06:30N 34°09' W 119°12'0 0.0
2017-Nov-17 05:52N 34°09' W 119°12'0 0.0
2017-Nov-17 05:28N 34°09' W 119°12'0 0.0
2017-Nov-17 04:58N 34°09' W 119°12'0 0.0
2017-Nov-17 04:29N 34°09' W 119°12'0 0.0
2017-Nov-17 04:00N 34°09' W 119°12'3 5.5
2017-Nov-17 03:29N 34°09' W 119°15'613.2
2017-Nov-17 03:00N 34°11' W 119°23'2 4.4
2017-Nov-17 02:30N 34°10' W 119°21'712.8
2017-Nov-17 01:58N 34°09' W 119°12'0 0.5
2017-Nov-17 01:29N 34°09' W 119°12'4 8.4
2017-Nov-17 01:00N 34°07' W 119°17'4 7.8
2017-Nov-17 00:28N 34°09' W 119°12'5 9.7
2017-Nov-16 23:59N 34°07' W 119°18'715.1
2017-Nov-16 23:30N 34°11' W 119°25'713.3
2017-Nov-16 23:00N 34°17' W 119°29'613.0
2017-Nov-16 22:30N 34°23' W 119°30'0 0.0
2017-Nov-16 22:00N 34°23' W 119°30'4 8.0
2017-Nov-16 21:28N 34°19' W 119°29'716.0
2017-Nov-16 21:01N 34°14' W 119°23'815.8
2017-Nov-16 20:30N 34°07' W 119°17'2 4.4
2017-Nov-16 20:01N 34°08' W 119°19'610.9
2017-Nov-16 19:30N 34°11' W 119°25'815.5
2017-Nov-16 19:00N 34°09' W 119°16'3 5.8
2017-Nov-16 18:26N 34°09' W 119°12'0 0.0
2017-Nov-16 17:57N 34°09' W 119°12'0 0.0
2017-Nov-16 17:29N 34°09' W 119°12'0 0.0
2017-Nov-16 17:00N 34°09' W 119°12'0 0.7
2017-Nov-16 16:30N 34°09' W 119°13'815.2
2017-Nov-16 16:00N 34°10' W 119°21'3 5.7
2017-Nov-16 15:30N 34°11' W 119°25'917.2
2017-Nov-16 15:00N 34°09' W 119°15'2 4.6
2017-Nov-16 14:30N 34°09' W 119°12'0 0.0
2017-Nov-16 13:58N 34°09' W 119°12'0 0.0
2017-Nov-16 13:30N 34°09' W 119°12'2 3.3
2017-Nov-16 13:00N 34°08' W 119°14'2 3.3
2017-Nov-16 12:30N 34°09' W 119°12'0 0.0
2017-Nov-16 12:00N 34°09' W 119°12'0 0.0
2017-Nov-16 11:30N 34°09' W 119°12'0 0.0
2017-Nov-16 10:59N 34°09' W 119°12'0 0.0
2017-Nov-16 10:22N 34°09' W 119°12'0 0.0
2017-Nov-16 10:00N 34°09' W 119°12'0 0.0
2017-Nov-16 09:29N 34°09' W 119°12'0 0.0
2017-Nov-16 09:00N 34°09' W 119°12'0 0.0
2017-Nov-16 08:27N 34°09' W 119°12'0 0.0
2017-Nov-16 08:00N 34°09' W 119°12'0 0.0
2017-Nov-16 07:29N 34°09' W 119°12'0 0.0
2017-Nov-16 06:59N 34°09' W 119°12'0 0.0
2017-Nov-16 06:26N 34°09' W 119°12'0 0.0
2017-Nov-16 05:59N 34°09' W 119°12'0 0.0
2017-Nov-16 05:30N 34°09' W 119°12'0 0.0
2017-Nov-16 05:00N 34°09' W 119°12'0 0.0
2017-Nov-16 04:30N 34°09' W 119°12'0 0.0
2017-Nov-16 03:58N 34°09' W 119°12'3 6.5
2017-Nov-16 03:29N 34°09' W 119°16'816.0
2017-Nov-16 03:00N 34°11' W 119°25'611.4
2017-Nov-16 02:30N 34°10' W 119°18'5 9.5
2017-Nov-16 01:56N 34°09' W 119°12'0 0.0
2017-Nov-16 01:30N 34°09' W 119°12'3 5.5
2017-Nov-16 00:59N 34°08' W 119°15'3 5.6
2017-Nov-16 00:30N 34°09' W 119°12'4 7.7
2017-Nov-16 00:00N 34°07' W 119°16'612.8
2017-Nov-15 23:30N 34°10' W 119°23'2 3.6
2017-Nov-15 23:01N 34°11' W 119°25'0 0.0
2017-Nov-15 22:31N 34°11' W 119°25'3 5.2
2017-Nov-15 22:00N 34°10' W 119°22'815.9
2017-Nov-15 21:31N 34°09' W 119°13'4 8.2
2017-Nov-15 20:58N 34°08' W 119°18'713.9
2017-Nov-15 20:28N 34°11' W 119°25'0 0.6
2017-Nov-15 19:58N 34°11' W 119°25'714.9
2017-Nov-15 19:29N 34°09' W 119°16'3 6.9
2017-Nov-15 19:00N 34°09' W 119°12'0 0.0
2017-Nov-15 18:28N 34°09' W 119°12'0 0.0
2017-Nov-15 18:00N 34°09' W 119°12'0 0.0
2017-Nov-15 17:29N 34°09' W 119°12'0 0.0
2017-Nov-15 17:00N 34°09' W 119°12'0 0.1
2017-Nov-15 16:29N 34°09' W 119°12'714.1
2017-Nov-15 16:00N 34°10' W 119°20'2 4.3
2017-Nov-15 15:30N 34°10' W 119°23'815.1
2017-Nov-15 15:00N 34°08' W 119°14'2 3.5
2017-Nov-15 14:31N 34°09' W 119°12'0 0.0
2017-Nov-15 13:54N 34°09' W 119°12'0 0.0
2017-Nov-15 13:30N 34°09' W 119°12'0 0.0
2017-Nov-15 13:00N 34°09' W 119°12'0 0.0
2017-Nov-15 12:30N 34°09' W 119°12'0 0.0
2017-Nov-15 12:00N 34°09' W 119°12'0 0.0
2017-Nov-15 11:28N 34°09' W 119°12'0 0.0
2017-Nov-15 11:00N 34°09' W 119°12'0 0.0
2017-Nov-15 10:30N 34°09' W 119°12'0 0.0
2017-Nov-15 09:57N 34°09' W 119°12'0 0.0
2017-Nov-15 09:31N 34°09' W 119°12'0 0.0
2017-Nov-15 08:58N 34°09' W 119°12'0 0.0
2017-Nov-15 08:27N 34°09' W 119°12'0 0.0
2017-Nov-15 07:57N 34°09' W 119°12'0 0.0
2017-Nov-15 07:30N 34°09' W 119°12'0 0.0
2017-Nov-15 06:58N 34°09' W 119°12'0 0.0
2017-Nov-15 06:30N 34°09' W 119°12'0 0.0
2017-Nov-15 05:59N 34°09' W 119°12'0 0.0
2017-Nov-15 05:29N 34°09' W 119°12'0 0.0
2017-Nov-15 04:52N 34°09' W 119°12'0 0.0
2017-Nov-15 04:28N 34°09' W 119°12'0 0.0
2017-Nov-15 03:57N 34°09' W 119°12'0 0.0
2017-Nov-15 03:29N 34°09' W 119°12'0 0.0
2017-Nov-15 03:00N 34°09' W 119°12'0 0.0
2017-Nov-15 02:24N 34°09' W 119°12'0 0.0
2017-Nov-15 01:55N 34°09' W 119°12'0 0.0
2017-Nov-15 01:30N 34°09' W 119°12'0 0.0
2017-Nov-15 00:59N 34°09' W 119°12'0 0.0
2017-Nov-15 00:17N 34°09' W 119°12'413.6
2017-Nov-14 23:59N 34°07' W 119°17'816.8
2017-Nov-14 23:30N 34°11' W 119°25'4 8.4
2017-Nov-14 23:00N 34°10' W 119°20'711.2
2017-Nov-14 22:24N 34°09' W 119°12'0 0.0
2017-Nov-14 21:56N 34°09' W 119°12'0 0.0
2017-Nov-14 21:30N 34°09' W 119°12'1 2.2
2017-Nov-14 20:58N 34°08' W 119°13'817.7
2017-Nov-14 20:30N 34°11' W 119°23'611.0
2017-Nov-14 20:00N 34°15' W 119°28'916.5
2017-Nov-14 19:29N 34°23' W 119°31'3 5.2
2017-Nov-14 18:59N 34°20' W 119°30'816.2
2017-Nov-14 18:30N 34°13' W 119°26'612.3
2017-Nov-14 18:00N 34°09' W 119°21'4 8.0
2017-Nov-14 17:30N 34°07' W 119°17'4 7.9
2017-Nov-14 16:58N 34°09' W 119°12'3 7.2
2017-Nov-14 16:30N 34°09' W 119°16'815.4
2017-Nov-14 16:00N 34°11' W 119°25'815.4
2017-Nov-14 15:30N 34°07' W 119°17'4 8.5
2017-Nov-14 14:59N 34°09' W 119°12'0 0.0
2017-Nov-14 14:30N 34°09' W 119°12'0 0.0
2017-Nov-14 14:01N 34°09' W 119°12'0 0.0
2017-Nov-14 13:30N 34°09' W 119°12'0 0.0
2017-Nov-14 13:00N 34°09' W 119°12'0 0.0
2017-Nov-14 12:30N 34°09' W 119°12'0 0.0
2017-Nov-14 12:00N 34°09' W 119°12'0 0.0
2017-Nov-14 11:30N 34°09' W 119°12'0 0.0
2017-Nov-14 10:57N 34°09' W 119°12'0 0.0
2017-Nov-14 10:30N 34°09' W 119°12'0 0.0
2017-Nov-14 10:00N 34°09' W 119°12'0 0.0
2017-Nov-14 09:27N 34°09' W 119°12'0 0.0
2017-Nov-14 09:00N 34°09' W 119°12'0 0.0
2017-Nov-14 08:30N 34°09' W 119°12'0 0.0
2017-Nov-14 08:00N 34°09' W 119°12'0 0.0
2017-Nov-14 07:27N 34°09' W 119°12'0 0.0
2017-Nov-14 07:00N 34°09' W 119°12'0 0.0
2017-Nov-14 06:30N 34°09' W 119°12'0 0.0
2017-Nov-14 06:01N 34°09' W 119°12'0 0.0
2017-Nov-14 05:31N 34°09' W 119°12'0 0.0
2017-Nov-14 05:00N 34°09' W 119°12'0 0.0
2017-Nov-14 04:30N 34°09' W 119°12'0 0.0
2017-Nov-14 03:59N 34°09' W 119°12'0 0.0
2017-Nov-14 03:30N 34°09' W 119°12'0 0.0
2017-Nov-14 03:00N 34°09' W 119°12'0 0.0
2017-Nov-14 02:27N 34°09' W 119°12'0 0.0
2017-Nov-14 01:54N 34°09' W 119°12'0 0.0
2017-Nov-14 01:30N 34°09' W 119°12'0 0.0
2017-Nov-14 01:00N 34°09' W 119°12'1 1.8
2017-Nov-14 00:29N 34°08' W 119°13'2 4.5
2017-Nov-14 00:00N 34°08' W 119°16'815.7
2017-Nov-13 23:30N 34°10' W 119°24'4 7.5
2017-Nov-13 22:57N 34°10' W 119°19'511.4
2017-Nov-13 22:29N 34°09' W 119°13'4 7.4
2017-Nov-13 22:00N 34°07' W 119°17'3 0.1
2017-Nov-13 01:56N 34°08' W 119°14'2 3.6
2017-Nov-13 01:30N 34°09' W 119°12'0 0.3
2017-Nov-13 01:00N 34°09' W 119°12'815.5
2017-Nov-13 00:30N 34°10' W 119°22'3 6.0
2017-Nov-13 00:00N 34°11' W 119°25'0 0.0
2017-Nov-12 23:30N 34°11' W 119°25'611.7
2017-Nov-12 23:00N 34°10' W 119°18'510.3
2017-Nov-12 22:30N 34°09' W 119°12'0 0.0
2017-Nov-12 21:58N 34°09' W 119°12'0 0.0
2017-Nov-12 21:28N 34°09' W 119°12'0 0.0
2017-Nov-12 20:54N 34°09' W 119°12'0 0.0
2017-Nov-12 20:21N 34°09' W 119°12'0 0.0
2017-Nov-12 19:59N 34°09' W 119°12'0 0.0
2017-Nov-12 01:42N 34°09' W 119°12'0 0.0
2017-Nov-12 01:29N 34°09' W 119°12'0 0.0
2017-Nov-12 00:56N 34°09' W 119°12'0 0.0
2017-Nov-12 00:26N 34°09' W 119°12'2 3.8
2017-Nov-11 23:59N 34°09' W 119°14'817.1
2017-Nov-11 23:30N 34°11' W 119°24'1 2.0
2017-Nov-11 23:00N 34°11' W 119°25'0 0.0
2017-Nov-11 22:30N 34°11' W 119°25'0 0.0
2017-Nov-11 22:00N 34°11' W 119°25'0 0.4
2017-Nov-11 21:30N 34°11' W 119°25'0 0.0
2017-Nov-11 20:58N 34°11' W 119°25'0 0.1
2017-Nov-11 20:29N 34°11' W 119°25'0 0.3
2017-Nov-11 20:00N 34°11' W 119°25'714.8
2017-Nov-11 19:30N 34°18' W 119°29'4 7.9
2017-Nov-11 19:00N 34°22' W 119°30'816.4
2017-Nov-11 18:30N 34°15' W 119°24'816.7
2017-Nov-11 18:00N 34°10' W 119°16'4 6.7
2017-Nov-11 17:29N 34°09' W 119°12'0 0.0
2017-Nov-11 17:00N 34°09' W 119°12'2 3.3
2017-Nov-11 16:30N 34°09' W 119°14'510.4
2017-Nov-11 16:00N 34°09' W 119°20'4 7.5
2017-Nov-11 15:31N 34°11' W 119°25'713.9
2017-Nov-11 15:00N 34°09' W 119°16'4 7.1
2017-Nov-11 14:30N 34°09' W 119°12'0 0.0
2017-Nov-11 14:00N 34°09' W 119°12'0 0.0
2017-Nov-11 13:30N 34°09' W 119°12'0 0.0
2017-Nov-11 12:58N 34°09' W 119°12'0 0.0
2017-Nov-11 12:30N 34°09' W 119°12'0 0.0
2017-Nov-11 12:00N 34°09' W 119°12'0 0.0
2017-Nov-11 11:29N 34°09' W 119°12'0 0.0
2017-Nov-11 10:58N 34°09' W 119°12'0 0.0
2017-Nov-11 10:29N 34°09' W 119°12'0 0.0
2017-Nov-11 10:00N 34°09' W 119°12'0 0.0
2017-Nov-11 09:28N 34°09' W 119°12'0 0.0
2017-Nov-11 09:00N 34°09' W 119°12'0 0.0
2017-Nov-11 08:29N 34°09' W 119°12'0 0.0
2017-Nov-11 08:00N 34°09' W 119°12'0 0.0
2017-Nov-11 07:30N 34°09' W 119°12'0 0.0
2017-Nov-11 07:00N 34°09' W 119°12'0 0.0
2017-Nov-11 06:30N 34°09' W 119°12'0 0.0
2017-Nov-11 06:00N 34°09' W 119°12'0 0.0
2017-Nov-11 05:26N 34°09' W 119°12'0 0.0
2017-Nov-11 05:00N 34°09' W 119°12'0 0.0
2017-Nov-11 04:29N 34°09' W 119°12'0 0.0
2017-Nov-11 04:00N 34°09' W 119°12'0 0.0
2017-Nov-11 03:29N 34°09' W 119°12'0 0.0
2017-Nov-11 02:58N 34°09' W 119°12'0 0.0
2017-Nov-11 02:27N 34°09' W 119°12'0 0.0
2017-Nov-11 01:52N 34°09' W 119°12'0 0.0
2017-Nov-11 01:30N 34°09' W 119°12'0 0.0
2017-Nov-11 01:00N 34°09' W 119°12'0 0.0
2017-Nov-11 00:28N 34°09' W 119°12'4 8.6
2017-Nov-11 00:00N 34°07' W 119°16'815.7
2017-Nov-10 23:29N 34°11' W 119°25'714.3
2017-Nov-10 23:00N 34°09' W 119°17'3 5.0
2017-Nov-10 22:30N 34°08' W 119°14'815.1
2017-Nov-10 22:00N 34°10' W 119°23'2 3.6
2017-Nov-10 21:30N 34°11' W 119°25'0 0.0
2017-Nov-10 21:00N 34°11' W 119°25'510.2
2017-Nov-10 20:30N 34°15' W 119°28'713.7
2017-Nov-10 19:59N 34°22' W 119°31'1 2.1
2017-Nov-10 19:30N 34°23' W 119°30'1 1.4
2017-Nov-10 19:00N 34°22' W 119°30'0 0.0
2017-Nov-10 18:28N 34°23' W 119°30'1 1.5
2017-Nov-10 18:00N 34°23' W 119°30'4 7.1
2017-Nov-10 17:30N 34°20' W 119°32'815.5
2017-Nov-10 17:00N 34°13' W 119°27'3 5.2
2017-Nov-10 16:29N 34°11' W 119°25'0 0.5
2017-Nov-10 16:00N 34°11' W 119°25'0 0.4
2017-Nov-10 15:31N 34°11' W 119°25'815.6
2017-Nov-10 15:00N 34°09' W 119°16'3 5.5
2017-Nov-10 14:26N 34°09' W 119°12'0 0.0
2017-Nov-10 13:59N 34°09' W 119°12'0 0.0
2017-Nov-10 13:29N 34°09' W 119°12'0 0.0
2017-Nov-10 13:00N 34°09' W 119°12'0 0.0
2017-Nov-10 12:30N 34°09' W 119°12'0 0.0
2017-Nov-10 12:00N 34°09' W 119°12'0 0.0
2017-Nov-10 11:30N 34°09' W 119°12'0 0.0
2017-Nov-10 10:59N 34°09' W 119°12'0 0.0
2017-Nov-10 10:22N 34°09' W 119°12'0 0.0
2017-Nov-10 10:00N 34°09' W 119°12'0 0.0
2017-Nov-10 09:30N 34°09' W 119°12'0 0.0
2017-Nov-10 09:00N 34°09' W 119°12'0 0.0
2017-Nov-10 08:25N 34°09' W 119°12'0 0.0
2017-Nov-10 08:00N 34°09' W 119°12'0 0.0
2017-Nov-10 07:30N 34°09' W 119°12'0 0.0
2017-Nov-10 07:00N 34°09' W 119°12'0 0.0
2017-Nov-10 06:30N 34°09' W 119°12'0 0.0
2017-Nov-10 06:00N 34°09' W 119°12'0 0.0
2017-Nov-10 05:30N 34°09' W 119°12'0 0.0
2017-Nov-10 04:58N 34°09' W 119°12'0 0.0
2017-Nov-10 04:30N 34°09' W 119°12'0 0.0
2017-Nov-10 03:57N 34°09' W 119°12'0 0.0
2017-Nov-10 03:30N 34°09' W 119°12'815.8
2017-Nov-10 03:00N 34°10' W 119°21'2 4.2
2017-Nov-10 02:25N 34°10' W 119°19'512.5
2017-Nov-10 01:59N 34°09' W 119°12'0 0.0
2017-Nov-10 01:30N 34°09' W 119°12'0 0.7
2017-Nov-10 01:00N 34°09' W 119°13'0 0.3
2017-Nov-10 00:30N 34°09' W 119°13'  

Dump ship's entire track history